Time;durP1;ratioP1;P1;durP2;ratioP2;P2;SDS_P1;SDS_P2;PMS_P1;PMS_P2;Temp;Humidity;BMP_temperature;BMP_pressure;BME280_temperature;BME280_humidity;BME280_pressure;Samples;Min_cycle;Max_cycle;Signal;HPM_P1;HPM_P2
2021/10/12 00:00:47;;;;;;;12.33;11.17;;;9.10;99.90;;;;;;5034189;28;20186;-68
2021/10/12 00:03:13;;;;;;;13.00;11.17;;;9.10;99.90;;;;;;5035621;28;20632;-68
2021/10/12 00:05:38;;;;;;;12.70;11.23;;;9.10;99.90;;;;;;5035565;28;20209;-67
2021/10/12 00:08:04;;;;;;;15.73;12.13;;;9.10;99.90;;;;;;5035272;28;20183;-67
2021/10/12 00:10:30;;;;;;;16.90;12.40;;;9.00;99.90;;;;;;5035205;28;20170;-67
2021/10/12 00:12:55;;;;;;;13.40;11.20;;;9.10;99.90;;;;;;5033748;28;20217;-66
2021/10/12 00:15:21;;;;;;;13.47;11.90;;;9.10;99.90;;;;;;5035131;28;20170;-68
2021/10/12 00:17:47;;;;;;;14.93;12.40;;;9.10;99.90;;;;;;5035123;28;20192;-65
2021/10/12 00:20:13;;;;;;;18.53;11.67;;;9.10;99.90;;;;;;5033668;28;20559;-64
2021/10/12 00:22:39;;;;;;;15.87;12.23;;;9.10;99.90;;;;;;5035271;28;20174;-68
2021/10/12 00:25:05;;;;;;;21.80;13.83;;;9.10;99.90;;;;;;5035234;28;20444;-65
2021/10/12 00:27:31;;;;;;;13.80;11.55;;;9.10;99.90;;;;;;5034517;28;20256;-66
2021/10/12 00:29:57;;;;;;;11.10;10.00;;;9.10;99.90;;;;;;5033448;28;20194;-65
2021/10/12 00:32:22;;;;;;;15.47;10.77;;;9.10;99.90;;;;;;5034734;28;20197;-66
2021/10/12 00:34:48;;;;;;;15.00;10.57;;;9.10;99.90;;;;;;5033764;28;20181;-66
2021/10/12 00:37:14;;;;;;;15.90;11.80;;;9.10;99.90;;;;;;5034649;28;20170;-65
2021/10/12 00:39:40;;;;;;;12.10;10.00;;;9.10;99.90;;;;;;5034878;28;20173;-68
2021/10/12 00:42:06;;;;;;;16.02;12.52;;;9.10;99.90;;;;;;5034464;28;20261;-67
2021/10/12 00:44:33;;;;;;;15.13;12.17;;;9.10;99.90;;;;;;5033395;28;20639;-67
2021/10/12 00:46:59;;;;;;;18.08;11.82;;;9.10;99.90;;;;;;5034189;28;20568;-66
2021/10/12 00:49:25;;;;;;;15.57;11.47;;;9.10;99.90;;;;;;5035013;28;20181;-66
2021/10/12 00:51:51;;;;;;;10.13;9.00;;;9.10;99.90;;;;;;5034974;28;20172;-67
2021/10/12 00:54:17;;;;;;;12.18;10.82;;;9.10;99.90;;;;;;5034530;28;20181;-67
2021/10/12 00:56:43;;;;;;;19.27;12.20;;;9.10;99.90;;;;;;5032320;28;20243;-67
2021/10/12 00:59:09;;;;;;;13.57;11.43;;;9.10;99.90;;;;;;5032861;28;20565;-65
2021/10/12 01:01:40;;;;;;;14.27;12.20;;;9.10;99.90;;;;;;5034409;28;20208;-67
2021/10/12 01:04:07;;;;;;;17.15;11.80;;;9.10;99.90;;;;;;5034357;28;20220;-67
2021/10/12 01:06:33;;;;;;;17.10;12.57;;;9.10;99.90;;;;;;5034051;28;20225;-66
2021/10/12 01:08:59;;;;;;;15.47;11.80;;;9.10;99.90;;;;;;5034325;28;20671;-66
2021/10/12 01:11:25;;;;;;;14.30;12.87;;;9.10;99.90;;;;;;5034418;28;20165;-67
2021/10/12 01:13:51;;;;;;;13.75;11.60;;;9.00;99.90;;;;;;5032722;28;20166;-66
2021/10/12 01:16:17;;;;;;;17.10;13.03;;;9.00;99.90;;;;;;5034025;28;20223;-67
2021/10/12 01:19:04;;;;;;;14.85;11.95;;;9.00;99.90;;;;;;5033633;28;20202;-67
2021/10/12 01:21:36;;;;;;;19.15;11.82;;;9.00;99.90;;;;;;5034212;28;20204;-67
2021/10/12 01:24:02;;;;;;;13.93;11.95;;;8.90;99.90;;;;;;5034389;28;20215;-67
2021/10/12 01:26:29;;;;;;;14.35;12.52;;;8.90;99.90;;;;;;5032461;28;20209;-67
2021/10/12 01:28:54;;;;;;;15.45;11.23;;;8.90;99.90;;;;;;5032393;28;20221;-67
2021/10/12 01:31:26;;;;;;;15.27;12.47;;;8.80;99.90;;;;;;5034154;28;20209;-68
2021/10/12 01:33:52;;;;;;;13.20;9.65;;;8.80;99.90;;;;;;5033989;28;20615;-67
2021/10/12 01:36:18;;;;;;;14.68;10.43;;;8.80;99.90;;;;;;5033475;28;20181;-65
2021/10/12 01:38:44;;;;;;;16.05;11.13;;;8.80;99.90;;;;;;5033296;28;20675;-66
2021/10/12 01:41:11;;;;;;;22.77;12.83;;;8.80;99.90;;;;;;5032751;28;20188;-66
2021/10/12 01:43:38;;;;;;;13.63;10.65;;;8.80;99.90;;;;;;5033521;28;20500;-65
2021/10/12 01:46:05;;;;;;;14.30;11.25;;;8.80;99.90;;;;;;5033361;28;20201;-67
2021/10/12 01:48:31;;;;;;;14.57;10.75;;;8.80;99.90;;;;;;5032954;28;20186;-65
2021/10/12 01:50:57;;;;;;;18.65;13.00;;;8.80;99.90;;;;;;5032227;28;20719;-67
2021/10/12 01:53:23;;;;;;;15.07;10.03;;;8.90;99.90;;;;;;5034079;28;20253;-68
2021/10/12 01:55:49;;;;;;;14.30;10.40;;;8.90;99.90;;;;;;5033294;28;20275;-65
2021/10/12 01:58:14;;;;;;;20.47;11.67;;;8.90;99.90;;;;;;5032494;28;20202;-66
2021/10/12 02:00:40;;;;;;;18.77;13.00;;;8.90;99.90;;;;;;5033518;28;20181;-65
2021/10/12 02:03:06;;;;;;;13.45;10.82;;;9.00;99.90;;;;;;5033624;28;20177;-66
2021/10/12 02:05:32;;;;;;;14.40;11.90;;;8.90;99.90;;;;;;5032878;28;20540;-68
2021/10/12 02:07:57;;;;;;;14.70;11.27;;;8.90;99.90;;;;;;5032628;28;20205;-66
2021/10/12 02:10:23;;;;;;;16.20;11.30;;;8.90;99.90;;;;;;5033280;28;20245;-65
2021/10/12 02:12:50;;;;;;;15.87;13.27;;;9.00;99.90;;;;;;5033372;28;20200;-67
2021/10/12 02:15:16;;;;;;;19.92;13.30;;;8.90;99.90;;;;;;5033303;28;20169;-66
2021/10/12 02:17:41;;;;;;;18.73;11.40;;;8.90;99.90;;;;;;5032549;28;20208;-67
2021/10/12 02:20:08;;;;;;;13.37;10.57;;;8.90;99.90;;;;;;5033335;28;20170;-66
2021/10/12 02:22:34;;;;;;;19.90;13.00;;;8.90;99.90;;;;;;5033169;28;20643;-65
2021/10/12 02:25:00;;;;;;;15.10;13.23;;;9.00;99.90;;;;;;5033158;28;20205;-65
2021/10/12 02:27:26;;;;;;;14.20;10.05;;;8.90;99.90;;;;;;5032455;28;20470;-66
2021/10/12 02:29:52;;;;;;;19.23;14.43;;;8.90;99.90;;;;;;5033152;28;20173;-65
2021/10/12 02:32:18;;;;;;;15.10;11.13;;;8.90;99.90;;;;;;5033143;28;20624;-67
2021/10/12 02:34:44;;;;;;;21.90;12.37;;;8.90;99.90;;;;;;5033034;28;20166;-67
2021/10/12 02:37:10;;;;;;;12.27;9.23;;;8.90;99.90;;;;;;5032566;28;20507;-67
2021/10/12 02:39:35;;;;;;;18.67;15.83;;;8.90;99.90;;;;;;5036961;28;20201;-67
2021/10/12 02:42:01;;;;;;;17.77;10.97;;;8.90;99.90;;;;;;5036812;28;20516;-66
2021/10/12 02:44:27;;;;;;;19.20;10.30;;;9.00;99.90;;;;;;5036983;28;21055;-67
2021/10/12 02:46:53;;;;;;;11.30;10.00;;;8.90;99.90;;;;;;5036279;28;20950;-66
2021/10/12 02:49:18;;;;;;;16.03;11.70;;;8.90;99.90;;;;;;5036537;28;20890;-67
2021/10/12 02:51:44;;;;;;;12.50;9.20;;;9.00;99.90;;;;;;5036832;28;20158;-67
2021/10/12 02:54:10;;;;;;;12.53;9.90;;;9.00;99.90;;;;;;5036931;28;20162;-66
2021/10/12 02:56:35;;;;;;;19.20;11.23;;;8.90;99.90;;;;;;5034520;28;20201;-67
2021/10/12 02:59:01;;;;;;;15.37;10.90;;;8.90;99.90;;;;;;5036319;28;20201;-66
2021/10/12 03:01:27;;;;;;;15.60;10.13;;;8.80;99.90;;;;;;5036476;28;20174;-67
2021/10/12 03:03:53;;;;;;;13.97;10.03;;;8.80;99.90;;;;;;5036458;28;20401;-67
2021/10/12 03:06:18;;;;;;;11.90;10.00;;;8.80;99.90;;;;;;5036313;28;20208;-67
2021/10/12 03:08:44;;;;;;;14.33;9.77;;;8.80;99.90;;;;;;5035591;28;20652;-65
2021/10/12 03:11:10;;;;;;;12.60;10.10;;;8.80;99.90;;;;;;5036532;28;20170;-68
2021/10/12 03:13:36;;;;;;;15.07;9.80;;;8.90;99.90;;;;;;5036251;28;20231;-67
2021/10/12 03:16:01;;;;;;;13.97;9.80;;;8.90;99.90;;;;;;5036067;28;20408;-67
2021/10/12 03:18:30;;;;;;;13.13;9.37;;;8.90;99.90;;;;;;5035445;28;21016;-66
2021/10/12 03:20:56;;;;;;;13.65;9.90;;;8.90;99.90;;;;;;5034876;28;20251;-67
2021/10/12 03:23:22;;;;;;;11.88;10.65;;;8.80;99.90;;;;;;5036173;28;20253;-66
2021/10/12 03:25:48;;;;;;;11.20;9.97;;;8.80;99.90;;;;;;5036275;28;20285;-66
2021/10/12 03:28:13;;;;;;;15.77;10.20;;;8.80;99.90;;;;;;5035221;28;20190;-66
2021/10/12 03:30:39;;;;;;;10.77;9.37;;;8.80;99.90;;;;;;5034726;28;20526;-66
2021/10/12 03:33:05;;;;;;;10.03;9.00;;;8.70;99.90;;;;;;5035869;28;20170;-67
2021/10/12 03:35:34;;;;;;;12.20;8.85;;;8.80;99.90;;;;;;5036123;28;20174;-66
2021/10/12 03:38:00;;;;;;;13.80;10.55;;;8.80;99.90;;;;;;5035331;28;20197;-66
2021/10/12 03:40:27;;;;;;;15.98;10.48;;;8.90;99.90;;;;;;5035954;28;20178;-67
2021/10/12 03:42:53;;;;;;;14.10;10.70;;;8.90;99.90;;;;;;5036012;28;20571;-66
2021/10/12 03:45:19;;;;;;;13.30;10.23;;;8.80;99.90;;;;;;5035469;28;20191;-67
2021/10/12 03:47:44;;;;;;;10.80;9.70;;;8.80;99.90;;;;;;5033444;28;20473;-66
2021/10/12 03:50:10;;;;;;;14.63;8.73;;;8.80;99.90;;;;;;5035061;28;20180;-66
2021/10/12 03:52:36;;;;;;;14.73;9.67;;;8.80;99.90;;;;;;5035685;28;20176;-67
2021/10/12 03:55:01;;;;;;;11.63;9.00;;;8.80;99.90;;;;;;5035481;28;20674;-66
2021/10/12 03:57:27;;;;;;;14.90;10.73;;;8.90;99.90;;;;;;5034840;28;20510;-66
2021/10/12 03:59:53;;;;;;;17.13;11.67;;;8.90;99.90;;;;;;5035552;28;20348;-68
2021/10/12 04:02:18;;;;;;;12.87;9.40;;;8.90;99.90;;;;;;5034335;28;20181;-67
2021/10/12 04:04:44;;;;;;;10.50;8.67;;;8.90;99.90;;;;;;5036016;28;20166;-67
2021/10/12 04:07:09;;;;;;;14.60;9.90;;;9.00;99.90;;;;;;5034589;28;20236;-66
2021/10/12 04:09:35;;;;;;;10.80;8.70;;;9.00;99.90;;;;;;5035460;28;20528;-67
2021/10/12 04:12:01;;;;;;;15.60;9.13;;;9.00;99.90;;;;;;5035635;28;20174;-67
2021/10/12 04:14:26;;;;;;;10.83;8.63;;;9.00;99.90;;;;;;5035323;28;20655;-67
2021/10/12 04:16:52;;;;;;;10.97;9.87;;;9.10;99.90;;;;;;5034436;28;20320;-67
2021/10/12 04:19:17;;;;;;;12.73;8.00;;;9.10;99.90;;;;;;5034901;28;20190;-67
2021/10/12 04:21:43;;;;;;;14.27;10.87;;;9.10;99.90;;;;;;5034979;28;20184;-65
2021/10/12 04:24:09;;;;;;;13.30;10.17;;;9.20;99.90;;;;;;5034997;28;20170;-65
2021/10/12 04:26:37;;;;;;;11.47;8.83;;;9.20;99.90;;;;;;5032602;28;20205;-67
2021/10/12 04:29:03;;;;;;;14.05;10.93;;;9.20;99.90;;;;;;5034533;28;20194;-67
2021/10/12 04:31:29;;;;;;;12.97;10.67;;;9.20;99.90;;;;;;5035066;28;20173;-65
2021/10/12 04:33:54;;;;;;;14.83;9.23;;;9.20;99.90;;;;;;5034798;28;20200;-67
2021/10/12 04:36:20;;;;;;;10.27;8.80;;;9.20;99.90;;;;;;5034195;28;20182;-66
2021/10/12 04:38:45;;;;;;;16.03;10.07;;;9.30;99.90;;;;;;5033227;28;20190;-65
2021/10/12 04:41:11;;;;;;;17.27;9.00;;;9.30;99.90;;;;;;5034596;28;20189;-67
2021/10/12 04:43:37;;;;;;;12.80;8.47;;;9.30;99.90;;;;;;5034841;28;20174;-67
2021/10/12 04:46:02;;;;;;;12.63;9.63;;;9.20;99.90;;;;;;5034124;28;20202;-67
2021/10/12 04:48:28;;;;;;;11.93;8.90;;;9.20;99.90;;;;;;5033950;28;20194;-65
2021/10/12 04:50:55;;;;;;;10.50;8.50;;;9.20;99.90;;;;;;5034384;28;20223;-67
2021/10/12 04:53:21;;;;;;;10.70;8.93;;;9.20;99.90;;;;;;5034578;28;20166;-67
2021/10/12 04:55:47;;;;;;;11.93;9.68;;;9.10;99.90;;;;;;5032388;28;20551;-67
2021/10/12 04:58:13;;;;;;;10.20;7.20;;;9.10;99.90;;;;;;5033676;28;20730;-68
2021/10/12 05:00:39;;;;;;;11.00;8.77;;;9.10;99.90;;;;;;5033517;28;20258;-67
2021/10/12 05:03:05;;;;;;;15.27;10.73;;;9.10;99.90;;;;;;5033992;28;20249;-68
2021/10/12 05:05:32;;;;;;;15.23;11.30;;;9.10;99.90;;;;;;5033952;28;20162;-67
2021/10/12 05:07:57;;;;;;;12.63;9.80;;;9.10;99.90;;;;;;5033571;28;20186;-68
2021/10/12 05:10:23;;;;;;;15.77;10.20;;;9.00;99.90;;;;;;5033601;28;20228;-68
2021/10/12 05:12:49;;;;;;;14.18;8.88;;;9.00;99.90;;;;;;5032642;28;20589;-66
2021/10/12 05:15:21;;;;;;;12.30;9.73;;;9.00;99.90;;;;;;5033699;28;20197;-68
2021/10/12 05:17:48;;;;;;;9.98;7.80;;;9.00;99.90;;;;;;5033455;28;20182;-68
2021/10/12 05:20:14;;;;;;;17.27;10.90;;;9.10;99.90;;;;;;5033599;28;20249;-67
2021/10/12 05:22:40;;;;;;;12.43;9.50;;;9.10;99.90;;;;;;5033636;28;20176;-67
2021/10/12 05:25:06;;;;;;;10.73;8.57;;;9.10;99.90;;;;;;5033758;28;20182;-66
2021/10/12 05:27:33;;;;;;;13.32;9.02;;;9.10;99.90;;;;;;5033112;28;20671;-67
2021/10/12 05:29:59;;;;;;;10.68;8.70;;;9.20;99.90;;;;;;5033627;28;20166;-67
2021/10/12 05:32:24;;;;;;;10.10;8.33;;;9.10;99.90;;;;;;5033304;28;20185;-67
2021/10/12 05:34:51;;;;;;;15.47;9.80;;;9.20;99.90;;;;;;5033638;28;20170;-67
2021/10/12 05:37:16;;;;;;;13.35;8.68;;;9.20;99.90;;;;;;5031293;28;20178;-66
2021/10/12 05:39:42;;;;;;;15.67;9.70;;;9.20;99.90;;;;;;5034592;28;20184;-67
2021/10/12 05:42:07;;;;;;;11.63;9.93;;;9.20;99.90;;;;;;5037407;28;20189;-68
2021/10/12 05:44:33;;;;;;;11.43;10.40;;;9.20;99.90;;;;;;5033337;28;20174;-69
2021/10/12 05:46:59;;;;;;;17.13;12.53;;;9.20;99.90;;;;;;5032703;28;20746;-68
2021/10/12 05:49:24;;;;;;;14.70;11.77;;;9.20;99.90;;;;;;5032548;28;20193;-68
2021/10/12 05:51:50;;;;;;;16.20;11.27;;;9.20;99.90;;;;;;5031621;28;20206;-68
2021/10/12 05:54:19;;;;;;;13.43;9.27;;;9.20;99.90;;;;;;5031207;28;20257;-67
2021/10/12 05:56:56;;;;;;;15.85;12.25;;;9.20;99.90;;;;;;5032816;28;20435;-68
2021/10/12 05:59:21;;;;;;;14.98;10.60;;;9.20;99.90;;;;;;5031172;28;20571;-68
2021/10/12 06:01:47;;;;;;;10.77;9.67;;;9.30;99.90;;;;;;5032907;28;20262;-68
2021/10/12 06:04:12;;;;;;;12.27;9.80;;;9.30;99.90;;;;;;5032986;28;20257;-68
2021/10/12 06:06:38;;;;;;;11.97;10.20;;;9.40;99.90;;;;;;5032825;28;20725;-68
2021/10/12 06:09:05;;;;;;;10.20;8.50;;;9.50;99.90;;;;;;5031835;28;20228;-68
2021/10/12 06:11:31;;;;;;;11.50;9.43;;;9.40;99.90;;;;;;5021099;28;20197;-67
2021/10/12 06:13:56;;;;;;;17.67;12.32;;;9.40;99.90;;;;;;5037782;28;20408;-68
2021/10/12 06:16:23;;;;;;;13.00;10.00;;;9.40;99.90;;;;;;5045627;28;20177;-68
2021/10/12 06:18:48;;;;;;;12.00;10.73;;;9.40;99.90;;;;;;5043078;28;20280;-67
2021/10/12 06:21:14;;;;;;;14.53;10.27;;;9.50;99.90;;;;;;5035303;28;20257;-67
2021/10/12 06:23:40;;;;;;;13.60;9.77;;;9.50;99.90;;;;;;5040068;28;20322;-69
2021/10/12 06:26:06;;;;;;;12.30;9.33;;;9.50;99.90;;;;;;5044811;28;20295;-69
2021/10/12 06:28:32;;;;;;;19.75;10.63;;;9.50;99.90;;;;;;5039226;28;20201;-68
2021/10/12 06:30:58;;;;;;;14.20;8.93;;;9.50;99.90;;;;;;5039894;28;20185;-67
2021/10/12 06:33:24;;;;;;;15.50;12.60;;;9.50;99.90;;;;;;5025994;28;20419;-68
2021/10/12 06:35:50;;;;;;;9.83;8.80;;;9.60;99.90;;;;;;5045896;28;20954;-66
2021/10/12 06:38:15;;;;;;;10.93;9.53;;;9.60;99.90;;;;;;5046352;28;20212;-68
2021/10/12 06:40:42;;;;;;;12.60;9.50;;;9.60;99.90;;;;;;5036981;28;20632;-66
2021/10/12 06:43:08;;;;;;;14.55;12.25;;;9.70;99.90;;;;;;5032085;28;20181;-68
2021/10/12 06:45:35;;;;;;;12.45;9.82;;;9.70;99.90;;;;;;5039026;28;20170;-67
2021/10/12 06:48:01;;;;;;;13.45;9.40;;;9.80;99.90;;;;;;5037740;28;20330;-69
2021/10/12 06:50:27;;;;;;;18.17;9.53;;;9.80;99.90;;;;;;5034335;28;20273;-67
2021/10/12 06:52:53;;;;;;;15.20;8.87;;;9.80;99.90;;;;;;5032240;28;20423;-67
2021/10/12 06:55:19;;;;;;;14.75;9.68;;;9.80;99.90;;;;;;5032946;28;20424;-68
2021/10/12 06:57:47;;;;;;;14.07;10.05;;;9.90;99.90;;;;;;5032191;28;20194;-67
2021/10/12 07:00:14;;;;;;;24.63;10.77;;;9.90;99.90;;;;;;5032221;28;20188;-69
2021/10/12 07:02:44;;;;;;;13.15;7.38;;;9.90;99.90;;;;;;5036903;28;20165;-65
2021/10/12 07:05:11;;;;;;;13.05;8.77;;;9.90;99.90;;;;;;5035816;28;20611;-66
2021/10/12 07:07:37;;;;;;;11.27;7.70;;;10.00;99.90;;;;;;5041516;28;20227;-66
2021/10/12 07:10:05;;;;;;;14.98;10.63;;;10.00;99.90;;;;;;5045145;28;20647;-65
2021/10/12 07:12:31;;;;;;;18.05;10.00;;;10.00;99.90;;;;;;5035422;28;20186;-67
2021/10/12 07:14:57;;;;;;;11.25;8.13;;;10.00;99.90;;;;;;5041794;28;20177;-65
2021/10/12 07:17:23;;;;;;;18.40;9.60;;;10.10;99.90;;;;;;5043996;28;20606;-67
2021/10/12 07:19:49;;;;;;;17.07;10.67;;;10.10;99.90;;;;;;5035973;28;20424;-66
2021/10/12 07:22:14;;;;;;;19.10;11.60;;;10.10;99.90;;;;;;5045010;28;20174;-66
2021/10/12 07:24:40;;;;;;;18.40;9.20;;;10.10;99.90;;;;;;5019250;28;20315;-68
2021/10/12 07:27:08;;;;;;;17.37;9.00;;;10.20;99.90;;;;;;5051488;28;20470;-68
2021/10/12 07:29:34;;;;;;;18.48;10.10;;;10.20;99.90;;;;;;5046666;28;20175;-68
2021/10/12 07:32:00;;;;;;;17.90;8.65;;;10.20;99.90;;;;;;5042321;28;20173;-67
2021/10/12 07:34:26;;;;;;;15.13;8.60;;;10.30;99.90;;;;;;5049154;28;20170;-66
2021/10/12 07:36:51;;;;;;;15.50;9.83;;;10.30;99.90;;;;;;5052749;28;20452;-71
2021/10/12 07:39:17;;;;;;;14.90;8.20;;;10.40;99.90;;;;;;5050279;28;20205;-70
2021/10/12 07:41:42;;;;;;;13.37;9.03;;;10.40;99.90;;;;;;5047441;28;20173;-69
2021/10/12 07:44:08;;;;;;;13.60;9.57;;;10.40;99.90;;;;;;5046664;28;20252;-69
2021/10/12 07:46:34;;;;;;;10.40;8.10;;;10.50;99.90;;;;;;5041891;28;20276;-71
2021/10/12 07:49:00;;;;;;;13.20;9.60;;;10.50;99.90;;;;;;5046479;28;20193;-69
2021/10/12 07:51:26;;;;;;;20.17;11.55;;;10.60;99.90;;;;;;5041014;28;20170;-69
2021/10/12 07:53:55;;;;;;;11.68;7.70;;;10.70;99.90;;;;;;5041852;28;20189;-69
2021/10/12 07:56:55;;;;;;;12.50;8.07;;;10.70;99.90;;;;;;5049540;28;20185;-70
2021/10/12 07:59:13;;;;;;;14.05;8.05;;;10.60;99.90;;;;;;5036936;28;20210;-69
2021/10/12 08:01:39;;;;;;;11.70;9.40;;;10.70;99.90;;;;;;5039581;28;20551;-71
2021/10/12 08:04:05;;;;;;;14.40;8.20;;;10.70;99.90;;;;;;5049211;28;20185;-70
2021/10/12 08:06:31;;;;;;;10.90;7.10;;;10.70;99.90;;;;;;5050626;28;20674;-69
2021/10/12 08:08:57;;;;;;;13.82;8.55;;;10.70;99.90;;;;;;5047992;28;20568;-69
2021/10/12 08:11:25;;;;;;;13.63;7.80;;;10.80;99.90;;;;;;5054347;28;20173;-71
2021/10/12 08:13:55;;;;;;;11.02;7.35;;;10.80;99.90;;;;;;5043603;28;20428;-71
2021/10/12 08:16:26;;;;;;;11.82;8.88;;;10.80;99.90;;;;;;5048765;28;20177;-70
2021/10/12 08:18:52;;;;;;;11.73;7.72;;;10.80;99.90;;;;;;5041569;28;20250;-70
2021/10/12 08:21:18;;;;;;;10.57;7.72;;;11.00;99.90;;;;;;5040816;28;20179;-69
2021/10/12 08:23:43;;;;;;;8.67;7.00;;;11.00;99.90;;;;;;5044843;28;20182;-70
2021/10/12 08:26:09;;;;;;;9.63;6.60;;;11.00;99.90;;;;;;5043148;28;20237;-70
2021/10/12 08:28:35;;;;;;;10.53;6.83;;;11.00;99.90;;;;;;5049253;28;20198;-68
2021/10/12 08:31:00;;;;;;;11.07;7.37;;;11.10;99.90;;;;;;5044334;28;20286;-71
2021/10/12 08:33:26;;;;;;;10.03;6.77;;;11.20;99.90;;;;;;5043936;28;20177;-70
2021/10/12 08:35:51;;;;;;;8.63;6.50;;;11.20;99.90;;;;;;5038673;28;20170;-70
2021/10/12 08:38:19;;;;;;;7.03;5.93;;;11.30;99.90;;;;;;5046075;28;20591;-69
2021/10/12 08:40:46;;;;;;;10.52;7.70;;;11.40;99.90;;;;;;5038881;28;20183;-68
2021/10/12 08:43:13;;;;;;;10.50;6.10;;;11.50;99.90;;;;;;5045897;28;20176;-70
2021/10/12 08:45:39;;;;;;;11.00;6.67;;;11.60;99.90;;;;;;5047021;28;20938;-71
2021/10/12 08:48:07;;;;;;;8.50;5.93;;;11.70;99.90;;;;;;5029283;28;20540;-70
2021/10/12 08:50:33;;;;;;;7.30;5.50;;;11.80;99.90;;;;;;5046689;28;20415;-69
2021/10/12 08:53:01;;;;;;;8.60;5.90;;;11.80;99.90;;;;;;5040133;28;20661;-70
2021/10/12 08:55:28;;;;;;;6.40;5.80;;;11.80;99.90;;;;;;5034348;28;20445;-71
2021/10/12 08:57:54;;;;;;;8.37;6.20;;;11.80;99.90;;;;;;5028733;28;20440;-71
2021/10/12 09:00:21;;;;;;;9.67;5.27;;;11.80;99.90;;;;;;5030158;28;20435;-70
2021/10/12 09:02:56;;;;;;;5.47;4.97;;;11.80;99.90;;;;;;5024997;28;20422;-72
2021/10/12 09:05:26;;;;;;;6.00;4.20;;;11.90;99.90;;;;;;5029836;28;20418;-69
2021/10/12 09:07:57;;;;;;;8.57;5.30;;;11.90;99.90;;;;;;5039731;28;20848;-71
2021/10/12 09:10:24;;;;;;;6.87;5.57;;;12.00;99.90;;;;;;5047421;28;20837;-72
2021/10/12 09:12:50;;;;;;;4.50;4.10;;;12.10;99.90;;;;;;5029020;28;20447;-70
2021/10/12 09:15:18;;;;;;;5.97;4.30;;;12.30;99.90;;;;;;5046629;28;20421;-70
2021/10/12 09:17:49;;;;;;;5.37;4.80;;;12.40;99.90;;;;;;5045698;28;20526;-69
2021/10/12 09:20:15;;;;;;;10.07;6.50;;;12.60;99.90;;;;;;5044992;28;20884;-70
2021/10/12 09:23:00;;;;;;;5.63;5.13;;;12.90;99.90;;;;;;5043818;28;20463;-69
2021/10/12 09:25:43;;;;;;;5.13;4.37;;;13.20;99.90;;;;;;5041255;28;20189;-68
2021/10/12 09:28:36;;;;;;;5.77;4.80;;;13.40;99.90;;;;;;5037939;28;20969;-68
2021/10/12 09:31:02;;;;;;;9.20;4.23;;;13.70;99.90;;;;;;5030961;28;20414;-66
2021/10/12 09:33:28;;;;;;;5.23;4.30;;;14.00;99.90;;;;;;5038966;28;20416;-66
2021/10/12 09:35:53;;;;;;;3.77;3.47;;;14.10;99.90;;;;;;5018935;28;20489;-68
2021/10/12 09:38:20;;;;;;;6.37;4.57;;;14.30;99.90;;;;;;5030419;28;20321;-69
2021/10/12 09:40:46;;;;;;;4.73;4.33;;;14.50;99.90;;;;;;5032419;28;20170;-67
2021/10/12 09:43:16;;;;;;;4.43;4.03;;;14.50;99.90;;;;;;5033724;28;20420;-65
2021/10/12 09:45:43;;;;;;;5.90;4.10;;;14.60;99.90;;;;;;5051451;28;20418;-64
2021/10/12 09:48:32;;;;;;;7.23;4.03;;;14.70;99.90;;;;;;5052417;28;20419;-64
2021/10/12 09:51:11;;;;;;;3.50;2.97;;;14.80;99.90;;;;;;5028291;28;20418;-65
2021/10/12 09:53:38;;;;;;;5.27;3.47;;;14.80;99.90;;;;;;5027371;28;20723;-65
2021/10/12 09:56:06;;;;;;;4.37;3.70;;;14.60;99.90;;;;;;5052874;28;20481;-66
2021/10/12 09:58:33;;;;;;;4.10;3.30;;;14.40;99.90;;;;;;5045087;28;20912;-66
2021/10/12 10:01:04;;;;;;;4.63;3.50;;;14.10;99.90;;;;;;5037660;28;20503;-67
2021/10/12 10:03:30;;;;;;;3.57;3.00;;;13.80;99.90;;;;;;5044347;28;20387;-64
2021/10/12 10:06:18;;;;;;;3.93;3.53;;;13.50;99.90;;;;;;5040962;28;20431;-68
2021/10/12 10:08:48;;;;;;;5.83;4.53;;;13.30;99.90;;;;;;5032326;28;20418;-67
2021/10/12 10:11:14;;;;;;;4.73;3.80;;;13.10;99.90;;;;;;5047425;28;20396;-65
2021/10/12 10:13:40;;;;;;;6.40;4.03;;;12.70;99.90;;;;;;5052953;28;20432;-65
2021/10/12 10:16:09;;;;;;;5.30;4.00;;;12.50;99.90;;;;;;5053016;28;20882;-66
2021/10/12 10:18:44;;;;;;;10.87;3.50;;;12.40;99.90;;;;;;5047269;28;20545;-66
2021/10/12 10:21:11;;;;;;;4.57;3.87;;;12.40;99.90;;;;;;5032828;28;20438;-69
2021/10/12 10:23:59;;;;;;;7.70;4.10;;;12.30;99.90;;;;;;5032972;28;20410;-67
2021/10/12 10:26:39;;;;;;;4.63;4.23;;;12.30;99.90;;;;;;5032182;28;20456;-68
2021/10/12 10:29:23;;;;;;;4.97;4.47;;;12.40;99.90;;;;;;5043054;28;20437;-68
2021/10/12 10:31:52;;;;;;;4.87;3.97;;;12.50;99.90;;;;;;5045335;28;20398;-67
2021/10/12 10:34:40;;;;;;;4.63;3.83;;;12.70;99.90;;;;;;5034096;28;20401;-67
2021/10/12 10:37:15;;;;;;;4.53;3.80;;;12.90;99.90;;;;;;5032216;28;20423;-68
2021/10/12 10:39:41;;;;;;;4.70;3.90;;;13.10;99.90;;;;;;5032804;28;20419;-69
2021/10/12 10:42:07;;;;;;;3.37;3.10;;;13.30;99.90;;;;;;5030188;28;20477;-67
2021/10/12 10:44:56;;;;;;;3.50;3.20;;;13.60;99.90;;;;;;5032830;28;20430;-68
2021/10/12 10:47:40;;;;;;;4.23;3.50;;;13.80;99.90;;;;;;5031972;28;20460;-66
2021/10/12 10:50:12;;;;;;;6.80;3.50;;;14.00;99.90;;;;;;5030557;28;20399;-65
2021/10/12 10:53:01;;;;;;;3.50;3.17;;;14.10;99.90;;;;;;5030369;28;20436;-67
2021/10/12 10:55:27;;;;;;;3.40;3.10;;;14.30;99.90;;;;;;5027481;28;20421;-69
2021/10/12 10:58:18;;;;;;;4.20;3.83;;;14.30;99.90;;;;;;5022049;28;20997;-65
2021/10/12 11:00:45;;;;;;;3.30;2.83;;;14.40;99.90;;;;;;5024857;28;20860;-69
2021/10/12 11:03:35;;;;;;;3.93;3.13;;;14.40;99.90;;;;;;5030376;28;20421;-65
2021/10/12 11:06:05;;;;;;;2.50;2.30;;;14.20;99.90;;;;;;5016950;28;20400;-66
2021/10/12 11:08:33;;;;;;;3.03;2.73;;;14.00;99.90;;;;;;5034533;28;20444;-67
2021/10/12 11:11:04;;;;;;;5.10;3.03;;;13.90;99.90;;;;;;5036237;28;20433;-65
2021/10/12 11:13:34;;;;;;;3.63;2.57;;;13.80;99.90;;;;;;5040808;28;20398;-69
2021/10/12 11:16:02;;;;;;;6.63;2.87;;;13.60;99.90;;;;;;5034983;28;20912;-65
2021/10/12 11:18:28;;;;;;;4.00;3.10;;;13.50;99.90;;;;;;5036880;28;20459;-64
2021/10/12 11:20:59;;;;;;;3.10;2.80;;;13.40;99.90;;;;;;5031973;28;20394;-67
2021/10/12 11:23:34;;;;;;;4.17;2.40;;;13.30;99.90;;;;;;5037908;28;20382;-64
2021/10/12 11:26:11;;;;;;;3.37;3.00;;;13.10;99.90;;;;;;5035244;28;20784;-64
2021/10/12 11:28:40;;;;;;;11.13;2.90;;;12.90;99.90;;;;;;5041683;28;20496;-64
2021/10/12 11:31:11;;;;;;;4.07;3.17;;;12.80;99.90;;;;;;5040619;28;20855;-65
2021/10/12 11:33:36;;;;;;;6.27;3.00;;;12.70;99.90;;;;;;5033612;28;20884;-62
2021/10/12 11:36:04;;;;;;;5.23;3.20;;;12.80;99.90;;;;;;5027856;28;20470;-60
2021/10/12 11:38:32;;;;;;;3.77;3.37;;;12.90;99.90;;;;;;5028981;28;20211;-60
2021/10/12 11:40:58;;;;;;;6.43;3.70;;;13.10;99.90;;;;;;5024982;28;20410;-61
2021/10/12 11:43:37;;;;;;;4.23;2.77;;;13.20;99.90;;;;;;5026250;28;20387;-63
2021/10/12 11:46:03;;;;;;;4.17;3.80;;;13.50;99.90;;;;;;5028078;28;20459;-62
2021/10/12 11:48:36;;;;;;;2.80;2.60;;;13.70;99.90;;;;;;5034778;28;21778;-61
2021/10/12 11:51:22;;;;;;;3.73;2.40;;;13.90;99.90;;;;;;5024542;28;20185;-62
2021/10/12 11:53:52;;;;;;;4.80;1.93;;;14.10;99.90;;;;;;5026211;28;20376;-62
2021/10/12 11:56:20;;;;;;;6.23;2.10;;;14.30;99.90;;;;;;5025886;28;20470;-63
2021/10/12 11:58:47;;;;;;;2.53;2.17;;;14.50;99.90;;;;;;5026502;28;20401;-63
2021/10/12 12:01:17;;;;;;;3.80;2.10;;;14.70;99.90;;;;;;5027026;28;21256;-64
2021/10/12 12:03:42;;;;;;;1.60;1.50;;;14.90;99.90;;;;;;5029684;28;20402;-62
2021/10/12 12:06:09;;;;;;;2.80;2.60;;;15.00;99.90;;;;;;5049995;28;21204;-63
2021/10/12 12:08:39;;;;;;;4.70;2.57;;;15.10;99.90;;;;;;5034903;28;20248;-64
2021/10/12 12:11:07;;;;;;;4.53;2.03;;;15.10;99.90;;;;;;5030262;28;20913;-65
2021/10/12 12:13:33;;;;;;;3.53;1.90;;;15.10;99.90;;;;;;5032811;28;20400;-63
2021/10/12 12:15:59;;;;;;;4.43;2.80;;;15.00;99.90;;;;;;5035253;28;20781;-62
2021/10/12 12:18:27;;;;;;;3.27;2.90;;;14.90;99.90;;;;;;5032689;28;20411;-63
2021/10/12 12:20:56;;;;;;;3.87;2.80;;;14.90;99.90;;;;;;5035041;28;20475;-63
2021/10/12 12:23:35;;;;;;;1.83;1.70;;;14.90;99.90;;;;;;5035075;28;20862;-63
2021/10/12 12:26:06;;;;;;;2.03;1.83;;;15.00;99.90;;;;;;5034736;28;20907;-64
2021/10/12 12:28:32;;;;;;;1.83;1.73;;;15.00;99.90;;;;;;5034339;28;20460;-62
2021/10/12 12:30:58;;;;;;;3.63;2.30;;;14.90;99.90;;;;;;5032363;28;20417;-63
2021/10/12 12:33:24;;;;;;;2.00;1.90;;;14.90;99.90;;;;;;5014628;28;20795;-64
2021/10/12 12:35:52;;;;;;;2.97;1.87;;;14.80;99.90;;;;;;5018072;28;20448;-62
2021/10/12 12:38:28;;;;;;;2.40;1.73;;;14.70;99.90;;;;;;5031749;28;20194;-63
2021/10/12 12:40:54;;;;;;;2.30;2.10;;;14.60;99.90;;;;;;5033553;28;20958;-62
2021/10/12 12:43:29;;;;;;;2.00;1.90;;;14.60;99.90;;;;;;5034490;28;20445;-63
2021/10/12 12:46:12;;;;;;;3.50;2.43;;;14.50;99.90;;;;;;5034577;28;20396;-64